Data for 05/10/2017

Time Sea-Level Adjusted Pressure Absolute Pressure Temperature Relative Humidity Dew Point   
(mb) (inHg) (mb) (inHg) (C) (F) (%) (C) (F)
00:05 1018 30.06 847 25.01 11 51.8 50 0.9 33.7
00:10 1018 30.06 847 25.01 10.9 51.6 50 0.9 33.7
00:15 1018 30.06 847 25.01 10.9 51.5 50 0.9 33.6
00:20 1018 30.06 847 25.01 10.9 51.5 50 1 33.8
00:25 1018 30.06 847 25.01 10.7 51.3 51 1.1 34
00:30 1018 30.06 847 25.01 10.6 51.1 52 1.2 34.1
00:35 1018 30.06 847 25.01 10.5 50.9 52 1.2 34.2
00:40 1018 30.06 847 25.01 10.5 50.8 53 1.4 34.4
00:45 1017 30.03 847 25.01 10.4 50.7 54 1.5 34.8
00:50 1018 30.06 847 25.01 10.3 50.5 54 1.6 34.8
00:55 1018 30.06 847 25.01 10.2 50.3 56 1.7 35.1
01:00 1018 30.06 847 25.01 9.9 49.9 57 1.8 35.2
01:05 1017 30.03 847 25.01 9.6 49.3 58 1.8 35.2
01:10 1018 30.06 847 25.01 9.4 49 59 1.8 35.3
01:15 1018 30.06 847 25.01 9.4 48.9 59 1.8 35.3
01:20 1017 30.03 847 25.01 9.4 48.8 59 1.8 35.3
01:25 1017 30.03 847 25.01 9.4 48.9 59 1.8 35.3
01:30 1017 30.03 847 25.01 9.3 48.8 60 2 35.5
01:35 1017 30.03 847 25.01 9.3 48.8 60 1.9 35.5
01:40 1017 30.03 847 25.01 9.3 48.8 60 2 35.7
01:45 1017 30.03 847 25.01 9.3 48.7 61 2.1 35.7
01:50 1017 30.03 847 25.01 9.2 48.6 61 2 35.7
01:55 1018 30.06 847 25.01 9.1 48.3 62 2.2 36
02:00 1018 30.06 847 25.01 8.8 47.8 63 2.2 36
02:05 1017 30.03 847 25.01 8.5 47.4 64 2.2 36
02:10 1017 30.03 847 25.01 8.4 47.2 64 2.1 35.8
02:15 1017 30.03 847 25.01 8.3 47 65 2.2 35.9
02:20 1017 30.03 847 25.01 8.2 46.7 66 2.2 35.9
02:25 1017 30.03 847 25.01 8 46.5 66 2 35.7
02:30 1017 30.03 847 25.01 7.8 46.1 65 1.8 35.2
02:35 1017 30.03 847 25.01 7.6 45.7 67 1.8 35.3
02:40 1017 30.03 847 25.01 7.6 45.6 66 1.7 35.1
02:45 1017 30.03 847 25.01 7.7 45.9 64 1.5 34.7
02:50 1017 30.03 847 25.01 7.7 45.9 63 1.3 34.3
02:55 1017 30.03 847 25.01 7.3 45.2 64 1.1 34
03:00 1017 30.03 847 25.01 7.2 44.9 65 1 33.9
03:05 1017 30.03 847 25.01 6.9 44.5 66 1 33.8
03:10 1017 30.03 847 25.01 7 44.6 65 1 33.7
03:15 1017 30.03 847 25.01 7.1 44.8 65 1 33.8
03:20 1017 30.03 847 25.01 7.1 44.9 65 1.1 33.9
03:25 1017 30.03 847 25.01 7.1 44.8 65 1 33.9
03:30 1018 30.06 847 25.01 7 44.6 65 0.8 33.5
03:35 1018 30.06 847 25.01 7.1 44.7 66 1.1 33.9
03:40 1018 30.06 847 25.01 7.1 44.8 66 1.1 34.1
03:45 1018 30.06 847 25.01 7.2 45 66 1.3 34.3
03:50 1018 30.06 847 25.01 7.2 44.9 67 1.4 34.6
03:55 1018 30.06 847 25.01 7.1 44.7 67 1.3 34.4
04:00 1018 30.06 847 25.01 6.9 44.3 67 1.1 34
04:05 1018 30.06 847 25.01 6.6 43.9 67 1 33.8
04:10 1018 30.06 847 25.01 6.4 43.5 67 0.7 33.2
04:15 1018 30.06 847 25.01 6.4 43.5 67 0.8 33.4
04:20 1018 30.06 847 25.01 6.3 43.3 67 0.6 33.1
04:25 1018 30.06 847 25.01 6.2 43.1 66 0.2 32.4
04:30 1018 30.06 847 25.01 5.9 42.7 67 0.3 32.6
04:35 1018 30.06 847 25.01 5.8 42.4 68 0.4 32.6
04:40 1018 30.06 847 25.01 5.7 42.3 69 0.4 32.7
04:45 1018 30.06 847 25.01 5.7 42.3 68 0.3 32.5
04:50 1018 30.06 847 25.01 5.6 42.1 67 0.1 32.1
04:55 1018 30.06 847 25.01 5.5 42 66 -0.2 31.6
05:00 1018 30.06 847 25.01 5.6 42.1 66 -0.2 31.6
05:05 1018 30.06 847 25.01 5.6 42.1 66 -0.2 31.6
05:10 1018 30.06 847 25.01 5.7 42.2 66 -0.3 31.5
05:15 1018 30.06 847 25.01 5.7 42.3 64 -0.5 31.1
05:20 1018 30.06 847 25.01 5.9 42.7 63 -0.5 31.1
05:25 1018 30.06 847 25.01 6.1 42.9 63 -0.4 31.3
05:30 1018 30.06 847 25.01 6.2 43.1 63 -0.3 31.4
05:35 1018 30.06 847 25.01 6.5 43.7 62 -0.2 31.6
05:40 1018 30.06 848 25.04 6.5 43.8 62 -0.2 31.7
05:45 1018 30.06 848 25.04 6.2 43.1 64 -0.2 31.6
05:50 1019 30.09 848 25.04 5.9 42.6 64 -0.3 31.5
05:55 1019 30.09 848 25.04 5.9 42.7 64 -0.3 31.4
06:00 1019 30.09 848 25.04 6.3 43.3 62 -0.4 31.4
06:05 1019 30.09 848 25.04 6.5 43.8 62 -0.2 31.6
06:10 1019 30.09 848 25.04 6.7 44.1 62 -0.1 31.8
06:15 1019 30.09 848 25.04 7.2 44.9 61 0.1 32.2
06:20 1019 30.09 848 25.04 7.5 45.5 61 0.4 32.7
06:25 1019 30.09 848 25.04 7.7 45.8 60 0.4 32.7
06:30 1019 30.09 848 25.04 8.2 46.7 58 0.5 32.9
06:35 1019 30.09 848 25.04 8.4 47.1 57 0.5 32.8
06:40 1019 30.09 848 25.04 8.9 48.1 54 0.2 32.3
06:45 1019 30.09 848 25.04 9.1 48.5 53 0.2 32.3
06:50 1019 30.09 848 25.04 9.1 48.5 53 -0 32
06:55 1019 30.09 848 25.04 9.4 48.8 53 0.2 32.4
07:00 1018 30.06 848 25.04 9.3 48.8 53 0.4 32.7
07:05 1018 30.06 848 25.04 9.6 49.3 53 0.4 32.8
07:10 1018 30.06 848 25.04 10.2 50.3 49 0.1 32.1
07:15 1019 30.09 848 25.04 10.4 50.8 49 0.3 32.5
07:20 1019 30.09 848 25.04 10.1 50.1 51 0.4 32.7
07:25 1019 30.09 848 25.04 10.5 50.9 47 -0.2 31.7
07:30 1019 30.09 848 25.04 10.8 51.5 47 0 32.1
07:35 1019 30.09 848 25.04 11.1 51.9 46 0 32
07:40 1019 30.09 848 25.04 11.3 52.3 46 0.1 32.2
07:45 1019 30.09 848 25.04 11.3 52.4 45 -0 32
07:50 1019 30.09 848 25.04 11.5 52.7 45 0.1 32.2
07:55 1019 30.09 848 25.04 11.7 53.1 44 0.1 32.1
08:00 1019 30.09 848 25.04 11.7 53.1 46 0.5 32.8
08:05 1019 30.09 848 25.04 11.9 53.4 43 -0.1 31.8
08:10 1019 30.09 848 25.04 12.4 54.4 43 0.4 32.6
08:15 1018 30.06 848 25.04 12.4 54.2 43 0.2 32.3
08:20 1018 30.06 848 25.04 12.4 54.2 42 -0.2 31.6
08:25 1018 30.06 848 25.04 13.1 55.6 41 0.2 32.4
08:30 1018 30.06 848 25.04 12.8 55 42 0.2 32.4
08:35 1018 30.06 848 25.04 13.3 55.9 41 0.3 32.5
08:40 1018 30.06 848 25.04 14.1 57.3 38 0.1 32.2
08:45 1018 30.06 848 25.04 14.9 58.8 38 0.8 33.5
08:50 1018 30.06 848 25.04 14.4 58 39 0.6 33.1
08:55 1018 30.06 847 25.01 14.9 58.9 34 -0.7 30.7
09:00 1018 30.06 847 25.01 15.4 59.7 34 -0.3 31.4
09:05 1018 30.06 847 25.01 15.8 60.4 33 -0.2 31.7
09:10 1018 30.06 847 25.01 15.9 60.6 33 -0.3 31.5
09:15 1018 30.06 847 25.01 15.9 60.7 34 0.1 32.2
09:20 1018 30.06 847 25.01 16.8 62.2 31 -0.1 31.8
09:25 1018 30.06 847 25.01 16.7 62 37 1.9 35.5
09:30 1018 30.06 847 25.01 16.7 62.1 32 0.2 32.3
09:35 1018 30.06 847 25.01 17.6 63.7 30 0.1 32.2
09:40 1018 30.06 847 25.01 17.3 63.1 32 0.6 33.1
09:45 1018 30.06 847 25.01 17.5 63.6 31 0.5 32.9
09:50 1018 30.06 847 25.01 17.8 64.1 31 0.7 33.3
09:55 1018 30.06 847 25.01 17.8 64.1 32 1.1 34
10:00 1018 30.06 847 25.01 17.2 62.9 32 0.3 32.5
10:05 1018 30.06 847 25.01 17.5 63.5 32 0.7 33.2
10:10 1018 30.06 847 25.01 18.2 64.7 31 0.8 33.5
10:15 1018 30.06 847 25.01 18.2 64.8 32 1.5 34.7
10:20 1018 30.06 847 25.01 18.3 65 31 1.3 34.3
10:25 1018 30.06 847 25.01 18.4 65.1 34 2.3 36.2
10:30 1018 30.06 847 25.01 17.6 63.6 34 1.7 35.1
10:35 1018 30.06 847 25.01 18 64.4 32 1.1 34
10:40 1018 30.06 847 25.01 18 64.4 33 1.5 34.8
10:45 1018 30.06 847 25.01 18.7 65.7 31 1.5 34.7
10:50 1018 30.06 847 25.01 19.4 66.9 29 1.1 34
10:55 1018 30.06 847 25.01 19 66.2 32 2 35.7
11:00 1017 30.03 847 25.01 18 64.5 32 1.1 34
11:05 1017 30.03 847 25.01 18.6 65.5 31 1.1 34
11:10 1017 30.03 847 25.01 18.2 64.7 29 -0.1 31.9
11:15 1017 30.03 847 25.01 19.3 66.7 26 -0.3 31.5
11:20 1017 30.03 847 25.01 18.9 65.9 29 0.6 33
11:25 1017 30.03 847 25.01 19.4 66.9 26 -0.3 31.5
11:30 1017 30.03 846 24.98 18.5 65.3 26 -1.2 29.8
11:35 1017 30.03 846 24.98 19.1 66.3 27 -0.4 31.3
11:40 1017 30.03 846 24.98 19.3 66.7 26 -0.4 31.4
11:45 1017 30.03 846 24.98 20 68 22 -2.2 28.1
11:50 1017 30.03 846 24.98 19.7 67.4 25 -0.9 30.4
11:55 1017 30.03 846 24.98 20.1 68.2 22 -2.1 28.3
12:00 1017 30.03 846 24.98 20.7 69.3 22 -1.5 29.4
12:05 1017 30.03 846 24.98 21.6 70.8 22 -1.2 29.9
12:10 1017 30.03 846 24.98 21.4 70.6 20 -2.3 27.9
12:15 1017 30.03 846 24.98 20.4 68.6 21 -2.4 27.7
12:20 1017 30.03 846 24.98 20.6 69 21 -2.1 28.3
12:25 1017 30.03 846 24.98 20.7 69.2 20 -2.7 27.2
12:30 1017 30.03 846 24.98 19.4 66.9 20 -3.8 25.1
12:35 1017 30.03 846 24.98 20.4 68.7 18 -4.7 23.6
12:40 1017 30.03 846 24.98 21.4 70.5 17 -4.4 24.1
12:45 1017 30.03 846 24.98 21.9 71.4 16 -4.6 23.8
12:50 1017 30.03 846 24.98 22.2 72 17 -4 24.7
12:55 1017 30.03 846 24.98 22.3 72.2 18 -3.1 26.5
13:00 1017 30.03 846 24.98 21 69.7 20 -2.9 26.8
13:05 1017 30.03 846 24.98 20.7 69.2 20 -3.1 26.3
13:10 1017 30.03 846 24.98 20.6 69 20 -3.1 26.5
13:15 1017 30.03 846 24.98 20.5 68.8 20 -2.8 26.9
13:20 1017 30.03 846 24.98 20.8 69.5 20 -3 26.7
13:25 1017 30.03 846 24.98 21.7 71.1 19 -2.9 26.8
13:30 1017 30.03 846 24.98 21.8 71.2 18 -3.4 25.9
13:35 1017 30.03 846 24.98 21.8 71.3 17 -3.9 25.1
13:40 1017 30.03 846 24.98 21.3 70.3 19 -2.9 26.8
13:45 1017 30.03 846 24.98 22.2 71.9 19 -2.3 27.9
13:50 1017 30.03 846 24.98 22.4 72.2 17 -3.3 26
13:55 1016 30 846 24.98 21.2 70.1 20 -2.7 27.1
14:00 1016 30 846 24.98 20.9 69.5 21 -1.9 28.6
14:05 1016 30 846 24.98 21.2 70.2 21 -2 28.4
14:10 1016 30 846 24.98 21.6 70.8 19 -2.9 26.7
14:15 1016 30 845 24.95 21.5 70.8 19 -2.6 27.3
14:20 1016 30 845 24.95 22.4 72.3 19 -2.5 27.5
14:25 1016 30 845 24.95 23 73.3 18 -2.2 28
14:30 1016 30 845 24.95 22.6 72.7 20 -1.5 29.4
14:35 1016 30 845 24.95 21.7 71 20 -1.8 28.7
14:40 1016 30 845 24.95 21.9 71.4 19 -2.4 27.7
14:45 1016 30 845 24.95 22.6 72.7 19 -1.7 28.9
14:50 1016 30 845 24.95 22.1 71.7 20 -1.5 29.2
14:55 1016 30 845 24.95 22 71.6 20 -1.7 29
15:00 1016 30 845 24.95 22.5 72.4 20 -1.3 29.7
15:05 1016 30 845 24.95 22.3 72.2 20 -1.5 29.3
15:10 1016 30 845 24.95 21.4 70.5 20 -2.1 28.1
15:15 1016 30 845 24.95 21.7 71.1 19 -2.8 26.9
15:20 1016 30 845 24.95 22.6 72.7 19 -2.1 28.1
15:25 1016 30 845 24.95 23.1 73.6 20 -1.2 29.9
15:30 1016 30 845 24.95 23.1 73.6 19 -1.8 28.7
15:35 1016 30 845 24.95 23 73.3 18 -2.6 27.4
15:40 1016 30 845 24.95 23.1 73.6 18 -2.4 27.6
15:45 1016 30 845 24.95 23.1 73.5 18 -2.2 28.1
15:50 1016 30 845 24.95 23.1 73.5 18 -2.3 27.9
15:55 1016 30 845 24.95 23.6 74.4 18 -1.6 29.1
16:00 1016 30 845 24.95 23.9 75 17 -2.5 27.5
16:05 1016 30 845 24.95 23.4 74.2 18 -2.4 27.8
16:10 1016 30 845 24.95 23.3 73.9 18 -2.4 27.6
16:15 1016 30 845 24.95 23.3 73.9 16 -4 24.8
16:20 1016 30 845 24.95 22.9 73.1 17 -3.2 26.2
16:25 1016 30 845 24.95 23.4 74.1 16 -3.7 25.3
16:30 1016 30 845 24.95 22.8 73.1 17 -3 26.6
16:35 1016 30 845 24.95 23.5 74.3 17 -2.7 27.2
16:40 1016 30 845 24.95 23.7 74.7 19 -1.3 29.6
16:45 1016 30 845 24.95 22.8 73 19 -1.9 28.7
16:50 1016 30 845 24.95 22.1 71.7 19 -2.3 27.8
16:55 1016 30 845 24.95 22.6 72.6 19 -2 28.4
17:00 1016 30 845 24.95 22.3 72.1 19 -2.3 27.9
17:05 1016 30 845 24.95 22.8 73 18 -2.5 27.5
17:10 1016 30 845 24.95 22.9 73.3 18 -2.5 27.5
17:15 1016 30 845 24.95 22.8 73.1 18 -2.6 27.3
17:20 1016 30 845 24.95 23.2 73.8 17 -2.7 27.2
17:25 1016 30 845 24.95 23.2 73.7 18 -2.6 27.3
17:30 1016 30 845 24.95 23 73.3 19 -1.6 29
17:35 1016 30 845 24.95 21.7 71 20 -2 28.4
17:40 1016 30 845 24.95 21.9 71.4 19 -2.7 27.1
17:45 1016 30 845 24.95 22.4 72.2 19 -2.2 28
17:50 1016 30 845 24.95 22.7 72.8 18 -2.4 27.6
17:55 1016 30 845 24.95 22.7 72.9 19 -2 28.3
18:00 1016 30 845 24.95 22.2 71.9 19 -2.2 28.1
18:05 1016 30 845 24.95 21.6 70.8 21 -1.7 28.9
18:10 1016 30 845 24.95 21.6 70.9 20 -2.1 28.1
18:15 1016 30 845 24.95 21.5 70.8 20 -2.4 27.7
18:20 1016 30 845 24.95 21.4 70.5 20 -2 28.3
18:25 1016 30 845 24.95 21.3 70.3 20 -2.1 28.2
18:30 1016 30 845 24.95 21.3 70.3 20 -2.3 27.8
18:35 1016 30 845 24.95 21.1 69.9 20 -2.4 27.6
18:40 1016 30 845 24.95 21 69.7 20 -2.5 27.5
18:45 1016 30 845 24.95 20.9 69.6 21 -2.1 28.3
18:50 1016 30 845 24.95 20.7 69.3 21 -2.2 28
18:55 1016 30 845 24.95 20.5 69 24 -0.4 31.2
19:00 1016 30 845 24.95 20.2 68.3 30 2.1 35.9
19:05 1016 30 845 24.95 19.8 67.6 31 2.4 36.4
19:10 1016 30 845 24.95 19.5 67.1 32 2.6 36.7
19:15 1016 30 845 24.95 19.2 66.5 32 2.4 36.3
19:20 1016 30 845 24.95 18.9 66.1 33 2.6 36.7
19:25 1016 30 845 24.95 18.7 65.6 34 2.5 36.4
19:30 1016 30 845 24.95 18.4 65.2 34 2.6 36.7
19:35 1016 30 845 24.95 18.1 64.6 36 2.9 37.2
19:40 1016 30 845 24.95 17.8 64 37 2.9 37.3
19:45 1016 30 845 24.95 17.6 63.6 37 2.9 37.2
19:50 1016 30 845 24.95 17.4 63.3 37 2.6 36.7
19:55 1016 30 845 24.95 17.2 62.9 37 2.4 36.4
20:00 1016 30 845 24.95 17 62.6 38 2.6 36.6
20:05 1016 30 845 24.95 17 62.5 38 2.6 36.7
20:10 1016 30 846 24.98 17 62.5 38 2.6 36.6
20:15 1016 30 846 24.98 16.9 62.5 37 2.4 36.2
20:20 1016 30 846 24.98 16.9 62.5 37 2.4 36.3
20:25 1017 30.03 846 24.98 16.9 62.3 37 2.3 36.1
20:30 1017 30.03 846 24.98 16.9 62.3 37 2.3 36.1
20:35 1017 30.03 846 24.98 16.7 62.1 37 2.2 36
20:40 1017 30.03 846 24.98 16.7 62.1 37 2.2 36
20:45 1017 30.03 846 24.98 16.7 62 38 2.3 36.2
20:50 1017 30.03 846 24.98 16.5 61.7 39 2.4 36.4
20:55 1017 30.03 846 24.98 16.4 61.5 39 2.6 36.7
21:00 1017 30.03 846 24.98 16.2 61.2 39 2.5 36.5
21:05 1017 30.03 846 24.98 16.1 60.9 40 2.5 36.5
21:10 1017 30.03 846 24.98 16 60.8 40 2.5 36.6
21:15 1017 30.03 846 24.98 15.9 60.6 40 2.5 36.5
21:20 1017 30.03 846 24.98 15.9 60.6 40 2.5 36.4
21:25 1017 30.03 846 24.98 15.8 60.4 41 2.7 36.9
21:30 1017 30.03 846 24.98 15.6 60 41 2.5 36.4
21:35 1017 30.03 846 24.98 15.5 59.9 41 2.5 36.4
21:40 1017 30.03 846 24.98 15.3 59.5 42 2.5 36.5
21:45 1017 30.03 846 24.98 15.1 59.2 42 2.6 36.6
21:50 1017 30.03 846 24.98 15.1 59.1 43 2.6 36.6
21:55 1017 30.03 846 24.98 15 58.9 43 2.5 36.5
22:00 1017 30.03 846 24.98 14.9 58.8 43 2.4 36.4
22:05 1017 30.03 846 24.98 15 59 42 2.4 36.3
22:10 1017 30.03 846 24.98 14.9 58.8 43 2.5 36.5
22:15 1017 30.03 846 24.98 14.8 58.6 43 2.4 36.2
22:20 1017 30.03 846 24.98 14.7 58.5 43 2.4 36.3
22:25 1017 30.03 846 24.98 14.6 58.2 43 2.4 36.3
22:30 1017 30.03 846 24.98 14.5 58 44 2.4 36.3
22:35 1017 30.03 847 25.01 14.3 57.8 44 2.3 36.1
22:40 1017 30.03 847 25.01 14.3 57.7 44 2.2 36
22:45 1017 30.03 847 25.01 14.3 57.7 44 2.2 35.9
22:50 1017 30.03 847 25.01 14.3 57.7 43 2.1 35.7
22:55 1017 30.03 847 25.01 14.2 57.5 44 2.1 35.8
23:00 1018 30.06 847 25.01 14.1 57.3 44 2.2 35.9
23:05 1018 30.06 847 25.01 13.9 57.1 45 2.2 35.9
23:10 1018 30.06 847 25.01 13.8 56.8 45 2.2 35.9
23:15 1018 30.06 847 25.01 13.7 56.6 46 2.2 36
23:20 1018 30.06 847 25.01 13.5 56.2 47 2.4 36.3
23:25 1018 30.06 847 25.01 13.1 55.6 48 2.3 36.2
23:30 1018 30.06 847 25.01 13.1 55.7 47 2.2 36
23:35 1018 30.06 847 25.01 13.2 55.8 47 2.1 35.8
23:40 1018 30.06 847 25.01 13.2 55.8 47 2.3 36.2
23:45 1018 30.06 847 25.01 13 55.4 48 2.3 36.2
23:50 1018 30.06 847 25.01 12.8 55.1 48 2.3 36.1
23:55 1018 30.06 847 25.01 12.7 54.8 49 2.4 36.3
24:00 1018 30.06 847 25.01 12.4 54.2 51 2.5 36.5